HTIR

Iringa Airport

Nduli, Tanzania
METAR HTIR 241200Z 11008KT 9999 SCT024 28/09 Q1020
Observed Flight Rules
Sep-24 @ 12:00 UTC (2 hours ago) Visual Flight Rules
Wind Visibility Clouds
110° at 8 knots 10,000+ meters
  • Scattered at 2,400' AGL
Temperatures Readings
Current 28°C / 82°F
Dewpoint 9°C / 48°F
Humidity 30%
Altimeter 30.12" Hg
Pressure 1020 hPa
Elevation 1428
METAR HTIR 241200Z 11008KT 9999 SCT024 28/09 Q1020
Observed Flight Rules
Sep-24 @ 12:00 UTC
(2 hours ago)
VFR
Wind Visibility
110° at 8 knots 10,000+ meters
Clouds
  • Scattered at 2,400' AGL
Temperature Dewpoint
28°C / 82°F 9°C / 48°F
Humidity Altimeter Pressure
30% 30.12" Hg 1020 hPa